JAL267 RJTT-RJOA
Flight info
| Callsign | JAL267 |
|---|---|
| Flight time | 1h 13m |
| Altitude | 30000 |
| Route | TIARA GUSRO Y20 KAMMY Y202 AMURO |
| Aircraft | B738/M-SDE2E3FGHIRWXY/LB1 |
Departure
| Time | 2026-04-30 12:22 |
|---|---|
| Airport | Tokyo Haneda International Airport (RJTT) |
Arrival
| Time | 2026-04-30 13:36 |
|---|---|
| Airport | Hiroshima Airport (RJOA) |
| Time | Latitude | Longitude | Altitude | Speed | Heading |
|---|---|---|---|---|---|
| 2026-04-30 11:56 | 35.54590 | 139.78473 | 22 ft | 0 kts | 90° |
| 2026-04-30 12:09 | 35.54590 | 139.78456 | 22 ft | 4 kts | 90° |
| 2026-04-30 12:09 | 35.54590 | 139.78423 | 21 ft | 4 kts | 90° |
| 2026-04-30 12:10 | 35.54590 | 139.78392 | 21 ft | 2 kts | 90° |
| 2026-04-30 12:10 | 35.54590 | 139.78364 | 22 ft | 4 kts | 88° |
| 2026-04-30 12:10 | 35.54590 | 139.78331 | 22 ft | 4 kts | 100° |
| 2026-04-30 12:10 | 35.54596 | 139.78304 | 23 ft | 4 kts | 114° |
| 2026-04-30 12:11 | 35.54610 | 139.78277 | 28 ft | 4 kts | 140° |
| 2026-04-30 12:11 | 35.54632 | 139.78259 | 26 ft | 3 kts | 150° |
| 2026-04-30 12:11 | 35.54652 | 139.78244 | 28 ft | 4 kts | 149° |
| 2026-04-30 12:11 | 35.54676 | 139.78228 | 27 ft | 4 kts | 149° |
| 2026-04-30 12:12 | 35.54688 | 139.78219 | 25 ft | 1 kts | 149° |
| 2026-04-30 12:14 | 35.54682 | 139.78223 | 26 ft | 4 kts | 149° |
| 2026-04-30 12:15 | 35.54642 | 139.78252 | 25 ft | 8 kts | 149° |
| 2026-04-30 12:15 | 35.54597 | 139.78285 | 25 ft | 8 kts | 149° |
| 2026-04-30 12:15 | 35.54552 | 139.78317 | 24 ft | 7 kts | 150° |
| 2026-04-30 12:15 | 35.54509 | 139.78348 | 24 ft | 7 kts | 149° |
| 2026-04-30 12:16 | 35.54463 | 139.78380 | 22 ft | 10 kts | 150° |
| 2026-04-30 12:16 | 35.54379 | 139.78439 | 24 ft | 16 kts | 150° |
| 2026-04-30 12:16 | 35.54277 | 139.78511 | 25 ft | 17 kts | 150° |
| 2026-04-30 12:16 | 35.54166 | 139.78590 | 22 ft | 20 kts | 149° |
| 2026-04-30 12:17 | 35.53906 | 139.78773 | 21 ft | 22 kts | 150° |
| 2026-04-30 12:17 | 35.53770 | 139.78870 | 18 ft | 23 kts | 149° |
| 2026-04-30 12:17 | 35.53629 | 139.78972 | 18 ft | 24 kts | 149° |
| 2026-04-30 12:18 | 35.53487 | 139.79071 | 19 ft | 24 kts | 150° |
| 2026-04-30 12:18 | 35.53371 | 139.79196 | 19 ft | 23 kts | 110° |
| 2026-04-30 12:18 | 35.53425 | 139.79367 | 20 ft | 22 kts | 60° |
| 2026-04-30 12:18 | 35.53502 | 139.79528 | 22 ft | 21 kts | 59° |
| 2026-04-30 12:19 | 35.53580 | 139.79691 | 18 ft | 24 kts | 60° |
| 2026-04-30 12:19 | 35.53660 | 139.79862 | 22 ft | 23 kts | 58° |
| 2026-04-30 12:19 | 35.53741 | 139.80031 | 21 ft | 23 kts | 63° |
| 2026-04-30 12:19 | 35.53824 | 139.80193 | 20 ft | 22 kts | 51° |
| 2026-04-30 12:20 | 35.53905 | 139.80349 | 27 ft | 21 kts | 61° |
| 2026-04-30 12:20 | 35.53985 | 139.80487 | 31 ft | 15 kts | 25° |
| 2026-04-30 12:20 | 35.54030 | 139.80472 | 32 ft | 0 kts | 329° |
| 2026-04-30 12:20 | 35.54031 | 139.80471 | 32 ft | 1 kts | 329° |
| 2026-04-30 12:21 | 35.54049 | 139.80458 | 30 ft | 0 kts | 329° |
| 2026-04-30 12:21 | 35.54050 | 139.80457 | 31 ft | 1 kts | 329° |
| 2026-04-30 12:22 | 35.54155 | 139.80382 | 29 ft | 49 kts | 330° |
| 2026-04-30 12:22 | 35.54653 | 139.80029 | 27 ft | 113 kts | 330° |
| 2026-04-30 12:22 | 35.55481 | 139.79443 | 144 ft | 152 kts | 332° |
| 2026-04-30 12:22 | 35.56417 | 139.78764 | 721 ft | 161 kts | 330° |
| 2026-04-30 12:23 | 35.57467 | 139.78248 | 1294 ft | 166 kts | 0° |
| 2026-04-30 12:23 | 35.58527 | 139.78647 | 1899 ft | 164 kts | 41° |
| 2026-04-30 12:23 | 35.59430 | 139.79522 | 2601 ft | 168 kts | 41° |
| 2026-04-30 12:23 | 35.60382 | 139.80414 | 3236 ft | 174 kts | 42° |
| 2026-04-30 12:24 | 35.61415 | 139.81393 | 3568 ft | 202 kts | 42° |
| 2026-04-30 12:24 | 35.62590 | 139.82513 | 3799 ft | 225 kts | 42° |
| 2026-04-30 12:24 | 35.63881 | 139.83743 | 4079 ft | 242 kts | 41° |
| 2026-04-30 12:24 | 35.65401 | 139.84738 | 4531 ft | 256 kts | 16° |
| 2026-04-30 12:25 | 35.67169 | 139.85135 | 5063 ft | 265 kts | 12° |
| 2026-04-30 12:25 | 35.69056 | 139.85525 | 5439 ft | 283 kts | 6° |
| 2026-04-30 12:25 | 35.71010 | 139.85169 | 6140 ft | 288 kts | 334° |
| 2026-04-30 12:25 | 35.72675 | 139.83884 | 6964 ft | 286 kts | 321° |
| 2026-04-30 12:26 | 35.74273 | 139.82409 | 7745 ft | 287 kts | 317° |
| 2026-04-30 12:26 | 35.75504 | 139.80519 | 8460 ft | 282 kts | 289° |
| 2026-04-30 12:26 | 35.76018 | 139.78229 | 9302 ft | 275 kts | 275° |
| 2026-04-30 12:26 | 35.76260 | 139.75893 | 10118 ft | 275 kts | 272° |
| 2026-04-30 12:27 | 35.76397 | 139.73491 | 10464 ft | 290 kts | 262° |
| 2026-04-30 12:27 | 35.75820 | 139.71050 | 10649 ft | 307 kts | 244° |
| 2026-04-30 12:27 | 35.74840 | 139.68620 | 10815 ft | 327 kts | 240° |
| 2026-04-30 12:27 | 35.73730 | 139.66100 | 11130 ft | 341 kts | 240° |
| 2026-04-30 12:28 | 35.72583 | 139.63512 | 11663 ft | 347 kts | 241° |
| 2026-04-30 12:28 | 35.71434 | 139.60883 | 12309 ft | 350 kts | 242° |
| 2026-04-30 12:28 | 35.70284 | 139.58218 | 12940 ft | 355 kts | 242° |
| 2026-04-30 12:28 | 35.69138 | 139.55536 | 13551 ft | 360 kts | 243° |
| 2026-04-30 12:29 | 35.67966 | 139.52787 | 14161 ft | 364 kts | 243° |
| 2026-04-30 12:29 | 35.66784 | 139.50017 | 14758 ft | 368 kts | 243° |
| 2026-04-30 12:29 | 35.65840 | 139.47095 | 15389 ft | 369 kts | 258° |
| 2026-04-30 12:29 | 35.65662 | 139.43952 | 16125 ft | 368 kts | 271° |
| 2026-04-30 12:30 | 35.65747 | 139.40793 | 16810 ft | 370 kts | 271° |
| 2026-04-30 12:30 | 35.65826 | 139.37626 | 17446 ft | 372 kts | 271° |
| 2026-04-30 12:30 | 35.65884 | 139.34431 | 18056 ft | 375 kts | 270° |
| 2026-04-30 12:30 | 35.65932 | 139.31218 | 18648 ft | 377 kts | 270° |
| 2026-04-30 12:31 | 35.65982 | 139.27990 | 19203 ft | 377 kts | 270° |
| 2026-04-30 12:31 | 35.66032 | 139.24767 | 19808 ft | 376 kts | 270° |
| 2026-04-30 12:31 | 35.66083 | 139.21552 | 20403 ft | 376 kts | 270° |
| 2026-04-30 12:31 | 35.66131 | 139.18377 | 20964 ft | 376 kts | 269° |
| 2026-04-30 12:32 | 35.66179 | 139.15159 | 21526 ft | 376 kts | 269° |
| 2026-04-30 12:32 | 35.66164 | 139.11941 | 22060 ft | 376 kts | 266° |
| 2026-04-30 12:32 | 35.66041 | 139.08720 | 22614 ft | 377 kts | 265° |
| 2026-04-30 12:32 | 35.65889 | 139.05508 | 23152 ft | 376 kts | 265° |
| 2026-04-30 12:33 | 35.65730 | 139.02285 | 23647 ft | 377 kts | 264° |
| 2026-04-30 12:33 | 35.65573 | 138.99055 | 24053 ft | 378 kts | 264° |
| 2026-04-30 12:33 | 35.65421 | 138.95825 | 24441 ft | 379 kts | 264° |
| 2026-04-30 12:33 | 35.65272 | 138.92582 | 24794 ft | 380 kts | 264° |
| 2026-04-30 12:34 | 35.65124 | 138.89329 | 25118 ft | 382 kts | 264° |
| 2026-04-30 12:34 | 35.64977 | 138.86061 | 25445 ft | 383 kts | 264° |
| 2026-04-30 12:34 | 35.64828 | 138.82778 | 25774 ft | 385 kts | 264° |
| 2026-04-30 12:34 | 35.64679 | 138.79501 | 26245 ft | 383 kts | 264° |
| 2026-04-30 12:35 | 35.64532 | 138.76287 | 26857 ft | 378 kts | 264° |
| 2026-04-30 12:35 | 35.64381 | 138.73080 | 27448 ft | 373 kts | 263° |
| 2026-04-30 12:35 | 35.64235 | 138.69912 | 27981 ft | 371 kts | 263° |
| 2026-04-30 12:35 | 35.64088 | 138.66751 | 28465 ft | 369 kts | 263° |
| 2026-04-30 12:36 | 35.63933 | 138.63604 | 28953 ft | 368 kts | 262° |
| 2026-04-30 12:36 | 35.63771 | 138.60474 | 29462 ft | 366 kts | 262° |
| 2026-04-30 12:36 | 35.63607 | 138.57355 | 29923 ft | 365 kts | 262° |
| 2026-04-30 12:36 | 35.63442 | 138.54235 | 30196 ft | 367 kts | 262° |
| 2026-04-30 12:37 | 35.63112 | 138.47986 | 30179 ft | 364 kts | 262° |
| 2026-04-30 12:37 | 35.62785 | 138.41809 | 30180 ft | 364 kts | 262° |
| 2026-04-30 12:38 | 35.62452 | 138.35591 | 30180 ft | 364 kts | 262° |
| 2026-04-30 12:38 | 35.62116 | 138.29367 | 30162 ft | 365 kts | 261° |
| 2026-04-30 12:39 | 35.61777 | 138.23122 | 30163 ft | 366 kts | 262° |
| 2026-04-30 12:39 | 35.61432 | 138.16876 | 30159 ft | 367 kts | 261° |
| 2026-04-30 12:40 | 35.61087 | 138.10685 | 30129 ft | 363 kts | 261° |
| 2026-04-30 12:40 | 35.60798 | 138.05530 | 30135 ft | 360 kts | 261° |
| 2026-04-30 12:41 | 35.60450 | 137.99404 | 30129 ft | 358 kts | 261° |
| 2026-04-30 12:41 | 35.60101 | 137.93326 | 30124 ft | 359 kts | 261° |
| 2026-04-30 12:42 | 35.59746 | 137.87160 | 30103 ft | 360 kts | 261° |
| 2026-04-30 12:42 | 35.59329 | 137.80012 | 30098 ft | 362 kts | 261° |
| 2026-04-30 12:43 | 35.58976 | 137.74886 | 30115 ft | 363 kts | 259° |
| 2026-04-30 12:43 | 35.58498 | 137.68679 | 30106 ft | 365 kts | 259° |
| 2026-04-30 12:44 | 35.58024 | 137.62449 | 30089 ft | 367 kts | 259° |
| 2026-04-30 12:44 | 35.57550 | 137.56199 | 30067 ft | 367 kts | 259° |
| 2026-04-30 12:45 | 35.56729 | 137.50081 | 30081 ft | 359 kts | 251° |
| 2026-04-30 12:45 | 35.55424 | 137.44195 | 30061 ft | 358 kts | 251° |
| 2026-04-30 12:46 | 35.54131 | 137.38288 | 30067 ft | 357 kts | 251° |
| 2026-04-30 12:46 | 35.52844 | 137.32381 | 30070 ft | 359 kts | 251° |
| 2026-04-30 12:47 | 35.51549 | 137.26445 | 30052 ft | 361 kts | 251° |
| 2026-04-30 12:47 | 35.50242 | 137.20516 | 30056 ft | 362 kts | 251° |
| 2026-04-30 12:48 | 35.48911 | 137.14526 | 30054 ft | 364 kts | 251° |
| 2026-04-30 12:48 | 35.47577 | 137.08532 | 30047 ft | 365 kts | 251° |
| 2026-04-30 12:49 | 35.46239 | 137.02528 | 30066 ft | 364 kts | 251° |
| 2026-04-30 12:49 | 35.44906 | 136.96562 | 30036 ft | 361 kts | 250° |
| 2026-04-30 12:50 | 35.43579 | 136.90631 | 30038 ft | 359 kts | 250° |
| 2026-04-30 12:50 | 35.42254 | 136.84734 | 30044 ft | 358 kts | 250° |
| 2026-04-30 12:51 | 35.40937 | 136.78883 | 30042 ft | 359 kts | 250° |
| 2026-04-30 12:51 | 35.39604 | 136.72977 | 30041 ft | 359 kts | 250° |
| 2026-04-30 12:52 | 35.38265 | 136.67059 | 30044 ft | 361 kts | 250° |
| 2026-04-30 12:52 | 35.36919 | 136.61122 | 30038 ft | 362 kts | 250° |
| 2026-04-30 12:53 | 35.35565 | 136.55165 | 30031 ft | 363 kts | 250° |
| 2026-04-30 12:53 | 35.34216 | 136.49240 | 30035 ft | 363 kts | 250° |
| 2026-04-30 12:54 | 35.32853 | 136.43275 | 30031 ft | 363 kts | 249° |
| 2026-04-30 12:54 | 35.31498 | 136.37346 | 30030 ft | 362 kts | 250° |
| 2026-04-30 12:55 | 35.30138 | 136.31402 | 30013 ft | 363 kts | 249° |
| 2026-04-30 12:55 | 35.28763 | 136.25410 | 30020 ft | 365 kts | 249° |
| 2026-04-30 12:56 | 35.27387 | 136.19420 | 30036 ft | 366 kts | 249° |
| 2026-04-30 12:56 | 35.26012 | 136.13444 | 29994 ft | 363 kts | 248° |
| 2026-04-30 12:57 | 35.24649 | 136.07541 | 29992 ft | 361 kts | 248° |
| 2026-04-30 12:57 | 35.23280 | 136.01626 | 29995 ft | 360 kts | 248° |
| 2026-04-30 12:58 | 35.21912 | 135.95735 | 29984 ft | 360 kts | 248° |
| 2026-04-30 12:58 | 35.20552 | 135.89886 | 29982 ft | 360 kts | 248° |
| 2026-04-30 12:59 | 35.19175 | 135.83979 | 29987 ft | 362 kts | 248° |
| 2026-04-30 12:59 | 35.17865 | 135.78009 | 29988 ft | 366 kts | 251° |
| 2026-04-30 13:00 | 35.16836 | 135.71889 | 29975 ft | 368 kts | 252° |
| 2026-04-30 13:00 | 35.15824 | 135.65780 | 29973 ft | 369 kts | 252° |
| 2026-04-30 13:01 | 35.14792 | 135.59646 | 29967 ft | 368 kts | 251° |
| 2026-04-30 13:01 | 35.13752 | 135.53514 | 29961 ft | 368 kts | 252° |
| 2026-04-30 13:02 | 35.12710 | 135.47399 | 29987 ft | 368 kts | 252° |
| 2026-04-30 13:02 | 35.11665 | 135.41283 | 29970 ft | 367 kts | 251° |
| 2026-04-30 13:03 | 35.10621 | 135.35195 | 29950 ft | 366 kts | 252° |
| 2026-04-30 13:03 | 35.09581 | 135.29156 | 29941 ft | 366 kts | 252° |
| 2026-04-30 13:04 | 35.08535 | 135.23059 | 29946 ft | 367 kts | 252° |
| 2026-04-30 13:04 | 35.07492 | 135.16953 | 29953 ft | 368 kts | 252° |
| 2026-04-30 13:05 | 35.06445 | 135.10840 | 29946 ft | 368 kts | 252° |
| 2026-04-30 13:06 | 35.04874 | 135.01700 | 29968 ft | 364 kts | 252° |
| 2026-04-30 13:06 | 35.03830 | 134.95662 | 29938 ft | 366 kts | 252° |
| 2026-04-30 13:07 | 35.02769 | 134.89579 | 29942 ft | 367 kts | 252° |
| 2026-04-30 13:07 | 35.01687 | 134.83469 | 29929 ft | 369 kts | 252° |
| 2026-04-30 13:08 | 35.00598 | 134.77334 | 29893 ft | 370 kts | 252° |
| 2026-04-30 13:08 | 34.99519 | 134.71254 | 29919 ft | 369 kts | 252° |
| 2026-04-30 13:09 | 34.98352 | 134.65159 | 29928 ft | 368 kts | 250° |
| 2026-04-30 13:09 | 34.97016 | 134.59133 | 29932 ft | 368 kts | 250° |
| 2026-04-30 13:09 | 34.96360 | 134.56164 | 29913 ft | 355 kts | 250° |
| 2026-04-30 13:10 | 34.95734 | 134.53304 | 29841 ft | 343 kts | 250° |
| 2026-04-30 13:10 | 34.95128 | 134.50526 | 29581 ft | 334 kts | 250° |
| 2026-04-30 13:10 | 34.94533 | 134.47798 | 29173 ft | 330 kts | 250° |
| 2026-04-30 13:10 | 34.93956 | 134.45148 | 28780 ft | 326 kts | 250° |
| 2026-04-30 13:11 | 34.93375 | 134.42488 | 28415 ft | 322 kts | 250° |
| 2026-04-30 13:11 | 34.92802 | 134.39866 | 28012 ft | 319 kts | 250° |
| 2026-04-30 13:11 | 34.92232 | 134.37243 | 27470 ft | 321 kts | 250° |
| 2026-04-30 13:11 | 34.91668 | 134.34631 | 27090 ft | 318 kts | 250° |
| 2026-04-30 13:12 | 34.91107 | 134.32026 | 26678 ft | 316 kts | 250° |
| 2026-04-30 13:12 | 34.90550 | 134.29449 | 26270 ft | 313 kts | 250° |
| 2026-04-30 13:12 | 34.89997 | 134.26887 | 25898 ft | 311 kts | 250° |
| 2026-04-30 13:13 | 34.88896 | 134.21803 | 25135 ft | 308 kts | 250° |
| 2026-04-30 13:13 | 34.88354 | 134.19313 | 24758 ft | 308 kts | 250° |
| 2026-04-30 13:13 | 34.87229 | 134.14208 | 23681 ft | 316 kts | 250° |
| 2026-04-30 13:14 | 34.86656 | 134.11627 | 23233 ft | 315 kts | 250° |
| 2026-04-30 13:14 | 34.86086 | 134.09056 | 22799 ft | 313 kts | 250° |
| 2026-04-30 13:14 | 34.84957 | 134.03971 | 22073 ft | 308 kts | 250° |
| 2026-04-30 13:15 | 34.84399 | 134.01462 | 21727 ft | 306 kts | 251° |
| 2026-04-30 13:15 | 34.83291 | 133.96488 | 20993 ft | 302 kts | 251° |
| 2026-04-30 13:15 | 34.82749 | 133.94061 | 20625 ft | 300 kts | 251° |
| 2026-04-30 13:16 | 34.82204 | 133.91622 | 20288 ft | 298 kts | 251° |
| 2026-04-30 13:16 | 34.81661 | 133.89194 | 19933 ft | 296 kts | 251° |
| 2026-04-30 13:16 | 34.81121 | 133.86779 | 19591 ft | 295 kts | 251° |
| 2026-04-30 13:17 | 34.80045 | 133.81977 | 18914 ft | 293 kts | 251° |
| 2026-04-30 13:17 | 34.79507 | 133.79582 | 18549 ft | 292 kts | 251° |
| 2026-04-30 13:17 | 34.78616 | 133.75619 | 17928 ft | 291 kts | 251° |
| 2026-04-30 13:18 | 34.77904 | 133.72452 | 17438 ft | 289 kts | 251° |
| 2026-04-30 13:18 | 34.76852 | 133.67784 | 16717 ft | 286 kts | 251° |
| 2026-04-30 13:18 | 34.76325 | 133.65452 | 16376 ft | 285 kts | 251° |
| 2026-04-30 13:19 | 34.75803 | 133.63139 | 16048 ft | 283 kts | 251° |
| 2026-04-30 13:19 | 34.75281 | 133.60835 | 15730 ft | 283 kts | 252° |
| 2026-04-30 13:19 | 34.74758 | 133.58523 | 15371 ft | 283 kts | 251° |
| 2026-04-30 13:19 | 34.74234 | 133.56214 | 15030 ft | 283 kts | 251° |
| 2026-04-30 13:20 | 34.73713 | 133.53915 | 14696 ft | 282 kts | 251° |
| 2026-04-30 13:20 | 34.73192 | 133.51619 | 14357 ft | 282 kts | 252° |
| 2026-04-30 13:20 | 34.72670 | 133.49326 | 14022 ft | 282 kts | 252° |
| 2026-04-30 13:20 | 34.72146 | 133.47023 | 13675 ft | 282 kts | 252° |
| 2026-04-30 13:21 | 34.71623 | 133.44724 | 13283 ft | 282 kts | 252° |
| 2026-04-30 13:21 | 34.71100 | 133.42425 | 12929 ft | 281 kts | 252° |
| 2026-04-30 13:21 | 34.70578 | 133.40132 | 12582 ft | 280 kts | 252° |
| 2026-04-30 13:22 | 34.69548 | 133.35614 | 11909 ft | 278 kts | 251° |
| 2026-04-30 13:22 | 34.69012 | 133.33357 | 11473 ft | 280 kts | 250° |
| 2026-04-30 13:22 | 34.67683 | 133.28831 | 10582 ft | 285 kts | 248° |
| 2026-04-30 13:23 | 34.67013 | 133.26571 | 10325 ft | 282 kts | 248° |
| 2026-04-30 13:23 | 34.65742 | 133.22237 | 10113 ft | 263 kts | 248° |
| 2026-04-30 13:24 | 34.64551 | 133.18165 | 9728 ft | 255 kts | 248° |
| 2026-04-30 13:24 | 34.63366 | 133.14126 | 9154 ft | 252 kts | 248° |
| 2026-04-30 13:25 | 34.62192 | 133.10122 | 8608 ft | 251 kts | 247° |
| 2026-04-30 13:25 | 34.61025 | 133.06147 | 8077 ft | 249 kts | 246° |
| 2026-04-30 13:26 | 34.59484 | 133.00904 | 7367 ft | 246 kts | 245° |
| 2026-04-30 13:26 | 34.58157 | 132.96396 | 6765 ft | 242 kts | 244° |
| 2026-04-30 13:27 | 34.57027 | 132.92563 | 6250 ft | 240 kts | 244° |
| 2026-04-30 13:28 | 34.55540 | 132.87537 | 5630 ft | 236 kts | 244° |
| 2026-04-30 13:28 | 34.54450 | 132.83851 | 5435 ft | 232 kts | 244° |
| 2026-04-30 13:28 | 34.53902 | 132.82003 | 5342 ft | 231 kts | 243° |
| 2026-04-30 13:29 | 34.52841 | 132.78410 | 5111 ft | 218 kts | 243° |
| 2026-04-30 13:29 | 34.51837 | 132.75037 | 4729 ft | 206 kts | 241° |
| 2026-04-30 13:30 | 34.49543 | 132.72119 | 4152 ft | 168 kts | 197° |
| 2026-04-30 13:31 | 34.47473 | 132.71699 | 3818 ft | 162 kts | 172° |
| 2026-04-30 13:31 | 34.44582 | 132.73519 | 3277 ft | 161 kts | 129° |
| 2026-04-30 13:32 | 34.43662 | 132.75971 | 3017 ft | 161 kts | 99° |
| 2026-04-30 13:32 | 34.43605 | 132.78593 | 2974 ft | 151 kts | 94° |
| 2026-04-30 13:33 | 34.43603 | 132.81173 | 2586 ft | 153 kts | 92° |
| 2026-04-30 13:33 | 34.43602 | 132.83660 | 2201 ft | 146 kts | 91° |
| 2026-04-30 13:34 | 34.43601 | 132.84902 | 1997 ft | 148 kts | 90° |
| 2026-04-30 13:34 | 34.43601 | 132.88610 | 1376 ft | 145 kts | 89° |
| 2026-04-30 13:35 | 34.43599 | 132.89808 | 1207 ft | 140 kts | 88° |
| 2026-04-30 13:35 | 34.43607 | 132.91843 | 1078 ft | 70 kts | 90° |
| 2026-04-30 13:36 | 34.43723 | 132.92211 | 1078 ft | 15 kts | 343° |
| 2026-04-30 13:36 | 34.43769 | 132.92152 | 1078 ft | 9 kts | 279° |
| 2026-04-30 13:36 | 34.43785 | 132.92086 | 1077 ft | 2 kts | 345° |
| 2026-04-30 13:37 | 34.43798 | 132.92084 | 1077 ft | 2 kts | 353° |
| 2026-04-30 13:37 | 34.43871 | 132.92082 | 1078 ft | 7 kts | 360° |
| 2026-04-30 13:38 | 34.43899 | 132.92082 | 1078 ft | 0 kts | 360° |